createdAt,value
2022-11-08T00:00:40.360Z,26.90
2022-11-08T00:01:20.842Z,29.48
2022-11-08T00:01:43.579Z,30.55
2022-11-08T00:02:05.580Z,30.15
2022-11-08T00:02:28.014Z,28.90
2022-11-08T00:02:49.900Z,29.08
2022-11-08T00:03:11.852Z,26.98
2022-11-08T00:03:33.839Z,27.77
2022-11-08T00:03:55.698Z,28.30
2022-11-08T00:04:18.434Z,27.85
2022-11-08T00:04:40.693Z,27.60
2022-11-08T00:05:21.357Z,25.90
2022-11-08T00:06:01.719Z,24.52
2022-11-08T00:06:42.132Z,26.73
2022-11-08T00:07:23.059Z,29.83
2022-11-08T00:08:03.811Z,26.52
2022-11-08T00:08:44.024Z,23.97
2022-11-08T00:09:25.060Z,26.48
2022-11-08T00:10:06.251Z,26.45
2022-11-08T00:10:46.556Z,24.98
2022-11-08T00:11:27.590Z,25.27
2022-11-08T00:12:08.776Z,25.17
2022-11-08T00:12:49.637Z,26.48
2022-11-08T00:13:30.060Z,24.70
2022-11-08T00:13:59.352Z,25.02
2022-11-08T00:14:21.473Z,26.42
2022-11-08T00:14:44.086Z,27.80
2022-11-08T00:15:09.029Z,27.13
2022-11-08T00:15:33.484Z,25.98
2022-11-08T00:15:55.256Z,27.00
2022-11-08T00:16:17.036Z,26.40
2022-11-08T00:16:38.792Z,24.23
2022-11-08T00:17:00.932Z,24.08
2022-11-08T00:17:24.262Z,25.63
2022-11-08T00:17:46.062Z,27.52
2022-11-08T00:18:08.026Z,27.15
2022-11-08T00:18:30.146Z,25.88
2022-11-08T00:18:51.867Z,25.95
2022-11-08T00:19:13.581Z,27.25
2022-11-08T00:19:35.594Z,26.60
2022-11-08T00:19:57.718Z,26.45
2022-11-08T00:20:19.466Z,26.42
2022-11-08T00:20:41.202Z,26.45
2022-11-08T00:21:04.024Z,25.58
2022-11-08T00:21:26.365Z,25.08
2022-11-08T00:21:48.550Z,26.38
2022-11-08T00:22:11.178Z,27.33
2022-11-08T00:22:33.012Z,25.10
2022-11-08T00:22:54.751Z,28.40
2022-11-08T00:23:16.546Z,29.10
2022-11-08T00:23:38.381Z,30.20
2022-11-08T00:24:00.537Z,27.63
2022-11-08T00:24:22.256Z,29.92
2022-11-08T00:24:44.425Z,31.58
2022-11-08T00:25:06.912Z,32.55
2022-11-08T00:25:29.164Z,37.85
2022-11-08T00:25:55.159Z,40.65
2022-11-08T00:26:17.299Z,48.28
2022-11-08T00:26:39.137Z,38.85
2022-11-08T00:27:01.945Z,37.42
2022-11-08T00:27:25.037Z,37.33
2022-11-08T00:27:47.254Z,33.70
2022-11-08T00:28:09.406Z,30.52
2022-11-08T00:28:31.145Z,30.23
2022-11-08T00:28:53.008Z,33.78
2022-11-08T00:29:14.736Z,36.97
2022-11-08T00:29:37.355Z,35.45
2022-11-08T00:29:59.484Z,36.67
2022-11-08T00:30:23.264Z,38.45
2022-11-08T00:30:45.052Z,33.47
2022-11-08T00:31:07.358Z,36.28
2022-11-08T00:31:29.117Z,32.92
2022-11-08T00:31:51.432Z,34.03
2022-11-08T00:32:16.154Z,37.50
2022-11-08T00:32:38.322Z,44.42
2022-11-08T00:33:00.603Z,48.80
2022-11-08T00:33:22.758Z,57.53
2022-11-08T00:33:44.591Z,48.70
2022-11-08T00:34:06.374Z,55.17
2022-11-08T00:34:28.140Z,49.17
2022-11-08T00:34:57.864Z,43.25
2022-11-08T00:35:20.038Z,31.48
2022-11-08T00:35:41.746Z,30.33
2022-11-08T00:36:04.767Z,29.35
2022-11-08T00:36:26.946Z,43.22
2022-11-08T00:36:48.679Z,53.85
2022-11-08T00:37:11.283Z,57.65
2022-11-08T00:37:33.024Z,56.67
2022-11-08T00:37:54.816Z,51.60
2022-11-08T00:38:16.808Z,50.88
2022-11-08T00:38:42.720Z,42.63
2022-11-08T00:39:04.823Z,42.65
2022-11-08T00:39:27.094Z,39.70
2022-11-08T00:39:49.402Z,41.63
2022-11-08T00:40:12.116Z,45.75
2022-11-08T00:40:34.766Z,54.22
2022-11-08T00:40:56.584Z,37.92
2022-11-08T00:41:18.375Z,42.38
2022-11-08T00:41:40.565Z,52.28
2022-11-08T00:42:02.815Z,50.00
2022-11-08T00:42:25.861Z,38.30
2022-11-08T00:42:47.640Z,48.78
2022-11-08T00:43:09.807Z,46.25
2022-11-08T00:43:31.997Z,39.83
2022-11-08T00:43:54.229Z,37.55
2022-11-08T00:44:16.034Z,32.65
2022-11-08T00:44:38.187Z,28.17
2022-11-08T00:45:00.300Z,31.40
2022-11-08T00:45:22.417Z,37.50
2022-11-08T00:45:44.334Z,42.13
2022-11-08T00:46:06.240Z,40.15
2022-11-08T00:46:28.478Z,34.97
2022-11-08T00:46:50.685Z,47.80
2022-11-08T00:47:13.283Z,47.70
2022-11-08T00:47:35.491Z,49.15
2022-11-08T00:47:57.228Z,48.75
2022-11-08T00:48:19.312Z,46.15
2022-11-08T00:48:41.711Z,40.67
2022-11-08T00:49:03.988Z,33.92
2022-11-08T00:49:26.045Z,31.13
2022-11-08T00:49:48.149Z,32.80
2022-11-08T00:50:10.079Z,30.08
2022-11-08T00:50:31.821Z,31.80
2022-11-08T00:50:53.615Z,33.13
2022-11-08T00:51:15.400Z,31.67
2022-11-08T00:51:38.065Z,30.00
2022-11-08T00:51:59.880Z,28.50
2022-11-08T00:52:22.011Z,35.42
2022-11-08T00:52:44.108Z,36.45
2022-11-08T00:53:06.377Z,36.80
2022-11-08T00:53:28.145Z,32.35
2022-11-08T00:53:49.935Z,33.55
2022-11-08T00:54:14.880Z,30.83
2022-11-08T00:54:36.725Z,32.28
2022-11-08T00:54:58.575Z,32.00
2022-11-08T00:55:20.687Z,30.92
2022-11-08T00:55:42.542Z,33.40
2022-11-08T00:56:07.858Z,34.25
2022-11-08T00:56:29.618Z,32.08
2022-11-08T00:56:51.454Z,35.20
2022-11-08T00:57:13.640Z,30.55
2022-11-08T00:57:54.089Z,29.60
2022-11-08T00:58:17.454Z,31.33
2022-11-08T00:58:41.653Z,28.88
2022-11-08T00:59:03.769Z,31.02
2022-11-08T00:59:25.534Z,30.27
2022-11-08T00:59:47.264Z,28.60
2022-11-08T01:00:09.932Z,29.02
2022-11-08T01:00:31.729Z,29.88
2022-11-08T01:00:53.866Z,28.88
2022-11-08T01:01:17.537Z,26.65
2022-11-08T01:01:39.993Z,27.85
2022-11-08T01:02:03.586Z,28.70
2022-11-08T01:02:25.855Z,29.42
2022-11-08T01:02:48.117Z,28.15
2022-11-08T01:03:19.051Z,27.30
2022-11-08T01:03:40.842Z,30.45
2022-11-08T01:04:03.045Z,32.95
2022-11-08T01:04:24.792Z,29.55
2022-11-08T01:04:46.556Z,29.98
2022-11-08T01:05:08.836Z,27.63
2022-11-08T01:05:31.194Z,24.42
2022-11-08T01:05:54.816Z,27.75
2022-11-08T01:06:18.294Z,29.38
2022-11-08T01:06:40.699Z,30.08
2022-11-08T01:07:02.792Z,28.10
2022-11-08T01:07:24.542Z,30.85
2022-11-08T01:07:46.657Z,28.30
2022-11-08T01:08:09.112Z,28.63
2022-11-08T01:08:31.350Z,29.83
2022-11-08T01:08:55.397Z,30.13
2022-11-08T01:09:17.596Z,31.73
2022-11-08T01:09:39.355Z,30.48
2022-11-08T01:10:01.533Z,29.75
2022-11-08T01:10:23.272Z,28.55
2022-11-08T01:10:48.196Z,30.42
2022-11-08T01:11:14.123Z,28.17
2022-11-08T01:11:36.111Z,28.20
2022-11-08T01:11:57.892Z,28.75
2022-11-08T01:12:19.652Z,30.50
2022-11-08T01:12:41.369Z,32.03
2022-11-08T01:13:03.584Z,27.13
2022-11-08T01:13:25.797Z,27.73
2022-11-08T01:13:48.518Z,31.42
2022-11-08T01:14:10.401Z,29.92
2022-11-08T01:14:32.538Z,31.67
2022-11-08T01:14:54.929Z,31.30
2022-11-08T01:15:16.835Z,30.50
2022-11-08T01:15:40.995Z,30.13
2022-11-08T01:16:06.724Z,28.83
2022-11-08T01:16:30.133Z,29.58
2022-11-08T01:16:52.428Z,29.73
2022-11-08T01:17:14.177Z,29.20
2022-11-08T01:17:35.950Z,31.95
2022-11-08T01:17:57.704Z,31.02
2022-11-08T01:18:20.240Z,29.30
2022-11-08T01:18:43.396Z,35.42
2022-11-08T01:19:05.586Z,37.75
2022-11-08T01:19:27.681Z,32.03
2022-11-08T01:19:49.452Z,30.42
2022-11-08T01:20:11.854Z,30.23
2022-11-08T01:20:37.709Z,29.70
2022-11-08T01:20:59.866Z,30.63
2022-11-08T01:21:22.796Z,29.55
2022-11-08T01:21:44.579Z,31.38
2022-11-08T01:22:06.713Z,30.02
2022-11-08T01:22:28.886Z,31.30
2022-11-08T01:22:50.990Z,31.95
2022-11-08T01:23:13.927Z,33.42
2022-11-08T01:23:36.712Z,31.00
2022-11-08T01:23:59.017Z,33.75
2022-11-08T01:24:21.243Z,31.40
2022-11-08T01:24:43.058Z,30.25
2022-11-08T01:25:05.088Z,29.55
2022-11-08T01:25:27.244Z,31.17
2022-11-08T01:25:49.817Z,30.40
2022-11-08T01:26:13.690Z,29.92
2022-11-08T01:26:35.558Z,28.10
2022-11-08T01:26:57.323Z,31.77
2022-11-08T01:27:19.038Z,30.75
2022-11-08T01:27:41.707Z,31.33
2022-11-08T01:28:04.008Z,31.52
2022-11-08T01:28:26.133Z,27.00
2022-11-08T01:28:48.556Z,30.00
2022-11-08T01:29:10.283Z,30.75
2022-11-08T01:29:33.395Z,30.88
2022-11-08T01:29:55.133Z,28.50
2022-11-08T01:30:17.331Z,29.58
2022-11-08T01:30:39.990Z,35.55
2022-11-08T01:31:07.617Z,31.02
2022-11-08T01:31:31.765Z,29.90
2022-11-08T01:31:53.949Z,29.58
2022-11-08T01:32:16.086Z,26.88
2022-11-08T01:32:37.928Z,31.02
2022-11-08T01:32:59.643Z,31.10
2022-11-08T01:33:21.874Z,33.13
2022-11-08T01:33:49.880Z,32.90
2022-11-08T01:34:12.928Z,30.60
2022-11-08T01:34:34.762Z,31.00
2022-11-08T01:34:56.539Z,29.98
2022-11-08T01:35:18.280Z,29.27
2022-11-08T01:35:40.643Z,26.80
2022-11-08T01:36:02.507Z,28.58
2022-11-08T01:36:26.089Z,29.27
2022-11-08T01:36:48.252Z,28.33
2022-11-08T01:37:10.394Z,30.20
2022-11-08T01:37:32.209Z,29.83
2022-11-08T01:37:53.929Z,28.27
2022-11-08T01:38:16.551Z,28.70
2022-11-08T01:38:38.836Z,30.20
2022-11-08T01:39:00.633Z,31.65
2022-11-08T01:39:22.373Z,29.80
2022-11-08T01:39:44.505Z,27.00
2022-11-08T01:40:06.972Z,25.83
2022-11-08T01:40:29.555Z,27.13
2022-11-08T01:40:51.964Z,27.40
2022-11-08T01:41:15.624Z,29.48
2022-11-08T01:41:39.286Z,32.47
2022-11-08T01:42:01.442Z,28.85
2022-11-08T01:42:30.660Z,30.85
2022-11-08T01:42:53.513Z,32.28
2022-11-08T01:43:30.572Z,28.95
2022-11-08T01:43:57.589Z,28.30
2022-11-08T01:44:21.717Z,29.15
2022-11-08T01:45:15.682Z,30.95
2022-11-08T01:46:01.887Z,31.88
2022-11-08T01:46:35.570Z,30.60
2022-11-08T01:46:57.561Z,30.52
2022-11-08T01:47:19.314Z,26.60
2022-11-08T01:47:41.082Z,26.95
2022-11-08T01:48:02.980Z,26.75
2022-11-08T01:48:26.149Z,30.42
2022-11-08T01:49:13.509Z,31.27
2022-11-08T01:49:43.690Z,29.30
2022-11-08T01:50:13.249Z,30.65
2022-11-08T01:50:35.076Z,27.35
2022-11-08T01:50:59.551Z,30.83
2022-11-08T01:51:27.256Z,29.73
2022-11-08T01:51:51.697Z,28.08
2022-11-08T01:52:18.852Z,26.92
2022-11-08T01:52:46.268Z,31.50
2022-11-08T01:53:08.039Z,28.67
2022-11-08T01:53:30.411Z,27.05
2022-11-08T01:53:52.613Z,26.88
2022-11-08T01:54:17.797Z,27.23
2022-11-08T01:54:45.773Z,27.75
2022-11-08T01:55:10.082Z,29.33
2022-11-08T01:55:36.859Z,29.63
2022-11-08T01:55:59.276Z,28.73
2022-11-08T01:56:21.483Z,28.30
2022-11-08T01:56:44.655Z,25.85
2022-11-08T01:57:21.551Z,27.15
2022-11-08T01:58:06.964Z,28.73
2022-11-08T01:58:32.817Z,24.75
2022-11-08T01:58:58.217Z,28.35
2022-11-08T01:59:20.225Z,29.27
2022-11-08T01:59:44.898Z,30.88
2022-11-08T02:00:10.369Z,27.08
2022-11-08T02:00:32.223Z,26.13
2022-11-08T02:00:54.001Z,29.35
2022-11-08T02:01:15.915Z,26.38
2022-11-08T02:01:38.255Z,26.48
2022-11-08T02:02:00.697Z,26.60
2022-11-08T02:02:23.242Z,24.95
2022-11-08T02:02:47.900Z,25.55
2022-11-08T02:03:14.026Z,29.17
2022-11-08T02:03:36.541Z,25.70
2022-11-08T02:03:59.025Z,26.90
2022-11-08T02:04:21.362Z,27.05
2022-11-08T02:04:43.867Z,24.20
2022-11-08T02:05:07.783Z,27.00
2022-11-08T02:05:31.388Z,28.80
2022-11-08T02:05:53.261Z,30.95
2022-11-08T02:06:15.743Z,28.65
2022-11-08T02:06:39.475Z,29.30
2022-11-08T02:07:02.541Z,24.77
2022-11-08T02:07:25.916Z,26.17
2022-11-08T02:07:47.694Z,26.83
2022-11-08T02:08:34.528Z,28.98
2022-11-08T02:09:01.427Z,25.40
2022-11-08T02:09:23.599Z,24.98
2022-11-08T02:09:47.930Z,25.30
2022-11-08T02:10:10.167Z,28.40
2022-11-08T02:10:41.149Z,29.13
2022-11-08T02:11:03.987Z,26.58
2022-11-08T02:11:26.115Z,27.52
2022-11-08T02:11:49.264Z,29.75
2022-11-08T02:12:11.519Z,28.27
2022-11-08T02:12:33.676Z,26.88
2022-11-08T02:12:56.009Z,25.92
2022-11-08T02:13:24.872Z,27.67
2022-11-08T02:13:46.835Z,28.45
2022-11-08T02:14:08.803Z,28.85
2022-11-08T02:14:31.423Z,28.00
2022-11-08T02:14:53.238Z,31.17
2022-11-08T02:15:16.076Z,29.15
2022-11-08T02:15:38.247Z,27.38
2022-11-08T02:16:00.417Z,26.10
2022-11-08T02:16:22.564Z,25.95
2022-11-08T02:16:44.560Z,24.38
2022-11-08T02:17:07.579Z,26.63
2022-11-08T02:17:29.351Z,26.13
2022-11-08T02:17:51.541Z,27.08
2022-11-08T02:18:14.900Z,26.75
2022-11-08T02:18:37.160Z,25.77
2022-11-08T02:18:59.530Z,26.20
2022-11-08T02:19:42.790Z,29.25
2022-11-08T02:20:05.109Z,25.73
2022-11-08T02:20:27.374Z,26.73
2022-11-08T02:20:54.041Z,28.15
2022-11-08T02:21:49.420Z,27.55
2022-11-08T02:22:28.040Z,27.38
2022-11-08T02:22:59.193Z,28.67
2022-11-08T02:23:51.221Z,29.20
2022-11-08T02:24:13.944Z,25.45
2022-11-08T02:24:36.286Z,27.58
2022-11-08T02:24:58.750Z,27.65
2022-11-08T02:25:20.596Z,28.67
2022-11-08T02:25:42.364Z,25.08
2022-11-08T02:26:04.611Z,26.23
2022-11-08T02:26:29.896Z,27.17
2022-11-08T02:26:55.216Z,25.30
2022-11-08T02:27:17.169Z,26.98
2022-11-08T02:27:38.899Z,27.65
2022-11-08T02:28:00.648Z,27.45
2022-11-08T02:28:22.755Z,28.40
2022-11-08T02:28:47.829Z,28.23
2022-11-08T02:29:30.048Z,29.23
2022-11-08T02:29:55.572Z,31.60
2022-11-08T02:30:17.749Z,25.75
2022-11-08T02:30:39.639Z,27.50
2022-11-08T02:31:01.752Z,26.17
2022-11-08T02:31:23.784Z,34.67
2022-11-08T02:31:45.590Z,35.97
2022-11-08T02:32:07.742Z,32.78
2022-11-08T02:32:40.966Z,29.92
2022-11-08T02:33:21.135Z,28.90
2022-11-08T02:33:43.233Z,27.48
2022-11-08T02:34:05.802Z,27.55
2022-11-08T02:34:34.571Z,25.50
2022-11-08T02:34:59.643Z,27.58
2022-11-08T02:35:21.802Z,24.93
2022-11-08T02:35:46.571Z,25.83
2022-11-08T02:36:11.522Z,24.05
2022-11-08T02:36:33.644Z,26.58
2022-11-08T02:36:56.422Z,25.98
2022-11-08T02:37:21.274Z,24.55
2022-11-08T02:37:43.890Z,24.80
2022-11-08T02:38:05.706Z,29.60
2022-11-08T02:38:27.619Z,26.38
2022-11-08T02:38:52.452Z,28.33
2022-11-08T02:39:14.176Z,29.83
2022-11-08T02:39:35.974Z,28.05
2022-11-08T02:39:57.763Z,25.40
2022-11-08T02:40:19.559Z,24.90
2022-11-08T02:40:50.881Z,29.92
2022-11-08T02:41:12.706Z,28.63
2022-11-08T02:41:34.839Z,27.70
2022-11-08T02:41:56.582Z,30.80
2022-11-08T02:42:20.056Z,32.13
2022-11-08T02:42:42.280Z,28.85
2022-11-08T02:43:04.417Z,28.58
2022-11-08T02:43:26.261Z,26.73
2022-11-08T02:43:48.132Z,27.58
2022-11-08T02:44:09.869Z,31.73
2022-11-08T02:44:31.658Z,29.42
2022-11-08T02:44:53.402Z,29.70
2022-11-08T02:45:15.171Z,29.38
2022-11-08T02:45:37.276Z,26.17
2022-11-08T02:45:59.433Z,28.52
2022-11-08T02:46:21.192Z,27.50
2022-11-08T02:46:42.908Z,26.30
2022-11-08T02:47:05.326Z,27.55
2022-11-08T02:47:27.067Z,27.42
2022-11-08T02:47:48.908Z,30.02
2022-11-08T02:48:11.518Z,32.03
2022-11-08T02:48:33.284Z,32.75
2022-11-08T02:48:55.015Z,33.38
2022-11-08T02:49:17.054Z,28.30
2022-11-08T02:49:38.892Z,27.85
2022-11-08T02:50:00.658Z,27.90
2022-11-08T02:50:22.731Z,28.08
2022-11-08T02:50:44.928Z,29.50
2022-11-08T02:51:06.804Z,30.30
2022-11-08T02:51:28.584Z,29.40
2022-11-08T02:51:52.845Z,31.30
2022-11-08T02:52:14.712Z,33.88
2022-11-08T02:52:36.508Z,30.15
2022-11-08T02:52:58.215Z,29.92
2022-11-08T02:53:20.231Z,28.38
2022-11-08T02:53:42.038Z,27.30
2022-11-08T02:54:04.204Z,27.45
2022-11-08T02:54:25.913Z,23.48
2022-11-08T02:54:47.675Z,26.63
2022-11-08T02:55:09.517Z,31.77
2022-11-08T02:55:32.982Z,34.03
2022-11-08T02:55:55.118Z,31.98
2022-11-08T02:56:16.890Z,28.20
2022-11-08T02:56:38.658Z,28.75
2022-11-08T02:57:00.459Z,31.45
2022-11-08T02:57:22.189Z,29.88
2022-11-08T02:57:43.946Z,29.17
2022-11-08T02:58:05.762Z,30.58
2022-11-08T02:58:28.111Z,30.30
2022-11-08T02:58:49.990Z,30.15
2022-11-08T02:59:12.192Z,32.20
2022-11-08T02:59:34.392Z,36.05
2022-11-08T02:59:56.586Z,32.78
2022-11-08T03:00:18.459Z,29.75
2022-11-08T03:00:40.708Z,28.50
2022-11-08T03:01:02.942Z,29.33
2022-11-08T03:01:24.816Z,27.25
2022-11-08T03:01:46.775Z,28.25
2022-11-08T03:02:08.898Z,25.60
2022-11-08T03:02:31.144Z,32.55
2022-11-08T03:02:57.482Z,38.50
2022-11-08T03:03:19.570Z,52.03
2022-11-08T03:03:41.782Z,84.60
2022-11-08T03:04:03.726Z,76.70
2022-11-08T03:04:25.616Z,70.05
2022-11-08T03:04:47.330Z,60.85
2022-11-08T03:05:09.561Z,65.35
2022-11-08T03:05:32.073Z,62.95
2022-11-08T03:05:55.988Z,58.90
2022-11-08T03:06:17.819Z,56.42
2022-11-08T03:06:39.597Z,43.25
2022-11-08T03:07:01.414Z,40.15
2022-11-08T03:07:24.946Z,37.35
2022-11-08T03:07:47.038Z,37.35
2022-11-08T03:08:08.846Z,33.72
2022-11-08T03:08:30.594Z,34.15
2022-11-08T03:08:52.384Z,35.60
2022-11-08T03:09:14.614Z,34.17
2022-11-08T03:09:36.463Z,29.10
2022-11-08T03:09:58.291Z,43.70
2022-11-08T03:10:20.682Z,54.28
2022-11-08T03:10:42.488Z,78.35
2022-11-08T03:11:04.253Z,80.10
2022-11-08T03:11:26.008Z,69.25
2022-11-08T03:11:47.751Z,74.55
2022-11-08T03:12:09.570Z,67.00
2022-11-08T03:12:31.334Z,53.95
2022-11-08T03:13:04.452Z,45.90
2022-11-08T03:13:26.331Z,37.88
2022-11-08T03:13:48.211Z,42.17
2022-11-08T03:14:09.999Z,39.83
2022-11-08T03:14:32.057Z,36.65
2022-11-08T03:14:54.167Z,38.80
2022-11-08T03:15:16.365Z,41.45
2022-11-08T03:15:38.201Z,40.90
2022-11-08T03:16:03.753Z,44.78
2022-11-08T03:16:25.715Z,48.33
2022-11-08T03:16:47.531Z,56.13
2022-11-08T03:17:09.355Z,67.57
2022-11-08T03:17:31.160Z,67.10
2022-11-08T03:17:53.736Z,82.68
2022-11-08T03:18:15.787Z,100.15
2022-11-08T03:18:38.220Z,79.70
2022-11-08T03:19:00.356Z,82.15
2022-11-08T03:19:22.100Z,75.75
2022-11-08T03:19:43.890Z,67.13
2022-11-08T03:20:06.659Z,74.15
2022-11-08T03:20:32.845Z,84.63
2022-11-08T03:20:55.239Z,84.40
2022-11-08T03:21:17.032Z,73.45
2022-11-08T03:21:39.151Z,81.97
2022-11-08T03:22:01.710Z,78.32
2022-11-08T03:22:23.926Z,57.65
2022-11-08T03:22:47.046Z,54.22
2022-11-08T03:23:09.018Z,60.28
2022-11-08T03:23:32.539Z,61.42
2022-11-08T03:23:54.310Z,67.50
2022-11-08T03:24:16.170Z,73.28
2022-11-08T03:24:38.076Z,76.68
2022-11-08T03:24:59.783Z,79.90
2022-11-08T03:25:21.699Z,121.30
2022-11-08T03:25:43.397Z,100.63
2022-11-08T03:26:05.561Z,81.18
2022-11-08T03:26:27.278Z,91.97
2022-11-08T03:26:49.462Z,106.18
2022-11-08T03:27:13.981Z,99.55
2022-11-08T03:27:36.123Z,91.70
2022-11-08T03:28:08.943Z,79.93
2022-11-08T03:28:31.097Z,66.00
2022-11-08T03:28:52.881Z,43.97
2022-11-08T03:29:14.609Z,35.92
2022-11-08T03:29:36.488Z,29.45
2022-11-08T03:29:58.206Z,29.33
2022-11-08T03:30:20.660Z,30.90
2022-11-08T03:30:42.823Z,31.85
2022-11-08T03:31:04.585Z,31.58
2022-11-08T03:31:26.307Z,28.98
2022-11-08T03:31:48.018Z,27.40
2022-11-08T03:32:09.775Z,25.60
2022-11-08T03:32:31.912Z,25.20
2022-11-08T03:32:54.062Z,24.00
2022-11-08T03:33:15.808Z,26.15
2022-11-08T03:33:37.693Z,25.98
2022-11-08T03:33:59.511Z,26.73
2022-11-08T03:34:21.324Z,25.20
2022-11-08T03:34:43.068Z,24.73
2022-11-08T03:35:05.320Z,25.77
2022-11-08T03:35:27.181Z,26.70
2022-11-08T03:35:49.765Z,25.27
2022-11-08T03:36:11.916Z,23.25
2022-11-08T03:36:33.678Z,22.15
2022-11-08T03:36:55.786Z,23.70
2022-11-08T03:37:17.775Z,24.90
2022-11-08T03:37:39.723Z,26.70
2022-11-08T03:38:01.443Z,60.70
2022-11-08T03:38:23.290Z,90.70
2022-11-08T03:38:45.053Z,47.63
2022-11-08T03:39:06.805Z,31.10
2022-11-08T03:39:28.513Z,31.90
2022-11-08T03:39:50.630Z,33.58
2022-11-08T03:40:12.914Z,30.90
2022-11-08T03:40:34.705Z,27.25
2022-11-08T03:40:56.447Z,27.83
2022-11-08T03:41:18.180Z,26.65
2022-11-08T03:41:39.939Z,34.13
2022-11-08T03:42:04.503Z,38.85
2022-11-08T03:42:26.414Z,30.30
2022-11-08T03:42:48.352Z,27.45
2022-11-08T03:43:10.294Z,24.10
2022-11-08T03:43:32.394Z,23.25
2022-11-08T03:43:54.630Z,26.40
2022-11-08T03:44:16.785Z,30.30
2022-11-08T03:44:38.548Z,32.65
2022-11-08T03:45:00.275Z,29.73
2022-11-08T03:45:21.982Z,28.75
2022-11-08T03:45:45.173Z,32.97
2022-11-08T03:46:06.897Z,38.13
2022-11-08T03:46:28.642Z,33.47
2022-11-08T03:46:50.409Z,29.25
2022-11-08T03:47:12.151Z,29.45
2022-11-08T03:47:39.761Z,32.97
2022-11-08T03:48:01.945Z,33.28
2022-11-08T03:48:24.145Z,32.63
2022-11-08T03:48:46.266Z,47.08
2022-11-08T03:49:08.113Z,42.85
2022-11-08T03:49:29.900Z,59.10
2022-11-08T03:49:51.624Z,66.72
2022-11-08T03:50:14.748Z,70.30
2022-11-08T03:50:36.563Z,76.43
2022-11-08T03:50:58.297Z,56.40
2022-11-08T03:51:20.015Z,49.83
2022-11-08T03:51:41.795Z,51.15
2022-11-08T03:52:04.055Z,50.05
2022-11-08T03:52:25.801Z,47.90
2022-11-08T03:52:49.073Z,48.85
2022-11-08T03:53:11.211Z,46.80
2022-11-08T03:53:33.124Z,41.20
2022-11-08T03:53:54.930Z,40.40
2022-11-08T03:54:16.826Z,41.45
2022-11-08T03:54:38.616Z,40.60
2022-11-08T03:55:00.379Z,44.58
2022-11-08T03:55:24.590Z,40.83
2022-11-08T03:55:46.419Z,37.67
2022-11-08T03:56:08.787Z,46.10
2022-11-08T03:56:30.537Z,63.42
2022-11-08T03:56:52.351Z,65.43
2022-11-08T03:57:14.243Z,57.38
2022-11-08T03:57:36.384Z,51.70
2022-11-08T03:57:58.391Z,50.13
2022-11-08T03:58:20.628Z,47.97
2022-11-08T03:58:42.694Z,41.90
2022-11-08T03:59:04.594Z,37.20
2022-11-08T03:59:26.747Z,34.17
2022-11-08T03:59:48.856Z,35.85
2022-11-08T04:00:12.158Z,36.05
2022-11-08T04:00:34.002Z,27.60
2022-11-08T04:00:58.218Z,27.05
2022-11-08T04:01:20.116Z,26.75
2022-11-08T04:01:42.050Z,38.45
2022-11-08T04:02:03.934Z,38.63
2022-11-08T04:02:26.271Z,33.55
2022-11-08T04:02:48.520Z,33.60
2022-11-08T04:03:10.345Z,36.17
2022-11-08T04:03:32.217Z,34.20
2022-11-08T04:03:53.927Z,33.30
2022-11-08T04:04:15.697Z,34.55
2022-11-08T04:04:37.424Z,38.22
2022-11-08T04:04:59.650Z,37.22
2022-11-08T04:05:21.825Z,43.30
2022-11-08T04:05:43.699Z,63.13
2022-11-08T04:06:05.757Z,54.25
2022-11-08T04:06:27.541Z,45.08
2022-11-08T04:06:49.644Z,42.63
2022-11-08T04:07:11.346Z,38.47
2022-11-08T04:07:33.212Z,33.75
2022-11-08T04:07:55.033Z,35.20
2022-11-08T04:08:17.069Z,37.30
2022-11-08T04:08:39.445Z,39.63
2022-11-08T04:09:01.257Z,58.17
2022-11-08T04:09:23.167Z,65.30
2022-11-08T04:09:44.890Z,65.82
2022-11-08T04:10:08.038Z,48.17
2022-11-08T04:10:29.773Z,47.88
2022-11-08T04:10:55.433Z,47.05
2022-11-08T04:11:36.311Z,45.60
2022-11-08T04:12:16.679Z,44.78
2022-11-08T04:13:01.240Z,39.13
2022-11-08T04:13:42.023Z,38.28
2022-11-08T04:14:23.117Z,72.43
2022-11-08T04:15:03.470Z,72.35
2022-11-08T04:15:25.929Z,69.38
2022-11-08T04:15:53.823Z,65.65
2022-11-08T04:16:18.031Z,41.90
2022-11-08T04:16:40.008Z,49.97
2022-11-08T04:17:01.850Z,54.50
2022-11-08T04:17:44.018Z,63.53
2022-11-08T04:18:24.929Z,43.42
2022-11-08T04:19:05.481Z,55.08
2022-11-08T04:19:45.592Z,58.97
2022-11-08T04:20:27.851Z,57.95
2022-11-08T04:21:08.595Z,56.17
2022-11-08T04:21:30.438Z,44.40
2022-11-08T04:21:54.798Z,42.60
2022-11-08T04:22:17.001Z,44.42
2022-11-08T04:22:38.792Z,39.35
2022-11-08T04:23:00.543Z,35.92
2022-11-08T04:23:22.720Z,39.72
2022-11-08T04:23:44.865Z,38.35
2022-11-08T04:24:06.947Z,36.08
2022-11-08T04:24:28.728Z,40.58
2022-11-08T04:24:50.594Z,47.65
2022-11-08T04:25:12.430Z,44.67
2022-11-08T04:25:35.323Z,51.90
2022-11-08T04:26:02.308Z,48.63
2022-11-08T04:26:24.047Z,38.15
2022-11-08T04:26:45.821Z,57.95
2022-11-08T04:27:07.564Z,69.97
2022-11-08T04:27:29.326Z,54.63
2022-11-08T04:27:51.155Z,42.45
2022-11-08T04:28:12.875Z,37.35
2022-11-08T04:28:37.487Z,32.05
2022-11-08T04:29:17.536Z,33.83
2022-11-08T04:29:39.717Z,35.08
2022-11-08T04:30:01.509Z,37.72
2022-11-08T04:30:23.645Z,36.63
2022-11-08T04:30:45.370Z,42.90
2022-11-08T04:31:15.984Z,44.13
2022-11-08T04:31:38.315Z,40.50
2022-11-08T04:32:00.467Z,48.80
2022-11-08T04:32:22.225Z,43.78
2022-11-08T04:32:43.978Z,41.47
2022-11-08T04:33:07.033Z,41.78
2022-11-08T04:33:29.422Z,40.10
2022-11-08T04:33:51.558Z,37.60
2022-11-08T04:34:13.434Z,37.20
2022-11-08T04:34:35.248Z,40.08
2022-11-08T04:34:57.275Z,40.60
2022-11-08T04:35:19.025Z,44.42
2022-11-08T04:35:40.760Z,91.72
2022-11-08T04:36:08.209Z,90.38
2022-11-08T04:36:30.018Z,68.15
2022-11-08T04:36:51.728Z,62.47
2022-11-08T04:37:13.488Z,56.25
2022-11-08T04:37:35.319Z,49.05
2022-11-08T04:38:01.568Z,47.03
2022-11-08T04:38:23.296Z,55.47
2022-11-08T04:38:48.354Z,56.60
2022-11-08T04:39:10.721Z,53.00
2022-11-08T04:39:32.857Z,46.10
2022-11-08T04:39:54.978Z,40.28
2022-11-08T04:40:16.789Z,36.95
2022-11-08T04:40:38.533Z,36.92
2022-11-08T04:41:02.593Z,41.88
2022-11-08T04:41:26.395Z,46.53
2022-11-08T04:41:48.159Z,43.70
2022-11-08T04:42:09.950Z,45.78
2022-11-08T04:42:31.695Z,51.15
2022-11-08T04:42:53.860Z,59.72
2022-11-08T04:43:16.014Z,67.15
2022-11-08T04:43:38.195Z,67.88
2022-11-08T04:43:59.918Z,66.68
2022-11-08T04:44:21.696Z,59.47
2022-11-08T04:44:43.458Z,53.47
2022-11-08T04:45:05.436Z,45.30
2022-11-08T04:45:27.549Z,52.15
2022-11-08T04:45:49.744Z,52.90
2022-11-08T04:46:16.560Z,38.55
2022-11-08T04:46:38.310Z,37.63
2022-11-08T04:47:00.079Z,44.60
2022-11-08T04:47:22.240Z,51.17
2022-11-08T04:47:48.607Z,51.80
2022-11-08T04:48:10.895Z,48.55
2022-11-08T04:48:32.865Z,52.90
2022-11-08T04:48:59.936Z,49.85
2022-11-08T04:49:21.777Z,39.55
2022-11-08T04:49:43.538Z,51.42
2022-11-08T04:50:05.596Z,53.90
2022-11-08T04:50:27.774Z,65.25
2022-11-08T04:50:49.664Z,78.55
2022-11-08T04:51:13.763Z,74.72
2022-11-08T04:51:35.924Z,81.18
2022-11-08T04:51:57.680Z,102.43
2022-11-08T04:52:19.436Z,97.38
2022-11-08T04:52:41.744Z,57.90
2022-11-08T04:53:04.035Z,44.45
2022-11-08T04:53:25.936Z,42.08
2022-11-08T04:53:48.078Z,40.97
2022-11-08T04:54:11.739Z,49.28
2022-11-08T04:54:33.548Z,55.58
2022-11-08T04:54:55.718Z,47.75
2022-11-08T04:55:17.563Z,44.10
2022-11-08T04:55:39.426Z,47.85
2022-11-08T04:56:06.423Z,49.30
2022-11-08T04:56:30.213Z,57.33
2022-11-08T04:56:52.039Z,58.22
2022-11-08T04:57:13.779Z,62.30
2022-11-08T04:57:36.070Z,58.70
2022-11-08T04:57:59.056Z,52.03
2022-11-08T04:58:21.299Z,46.22
2022-11-08T04:58:45.259Z,53.30
2022-11-08T04:59:11.750Z,47.92
2022-11-08T04:59:33.929Z,49.08
2022-11-08T04:59:55.958Z,41.00
2022-11-08T05:00:18.292Z,42.38
2022-11-08T05:00:40.437Z,43.45
2022-11-08T05:01:03.581Z,48.83
2022-11-08T05:01:28.169Z,43.80
2022-11-08T05:01:50.177Z,47.40
2022-11-08T05:02:12.648Z,50.90
2022-11-08T05:02:34.600Z,38.92
2022-11-08T05:02:56.819Z,38.60
2022-11-08T05:03:19.011Z,41.03
2022-11-08T05:03:41.011Z,44.63
2022-11-08T05:04:03.155Z,41.05
2022-11-08T05:04:24.864Z,43.40
2022-11-08T05:04:46.664Z,40.92
2022-11-08T05:05:09.190Z,42.25
2022-11-08T05:05:31.530Z,39.47